Terminal Aerodrome Forecast
Issued by NWS Newport/Morehead City, NC

Home | Current Version | Previous Version | Text Only | Print | Product List | Glossary Off
Versions: 1 2 3 4 5 6 7 8 9 10 11 12 13 14 15 16 17

000
FTUS42 KMHX 301726
TAFEWN
TAF
KEWN 301726Z 3018/3118 13006KT P6SM VCTS SCT030CB BKN040
     FM310300 18003KT P6SM SCT040 SCT250
     FM310900 00000KT 3SM BR SCT008
     FM311200 32005KT P6SM SCT250=

USA.gov is the U.S. government's official web portal to all federal, state and local government web resources and services.